DAL1670 KATL-KFLL
Flight info
| Callsign | DAL1670 |
|---|---|
| Flight time | 1h 22m |
| Altitude | 39000 |
| Route | VRSTY3 NOKIE YANTI Q89 PRMUS CUUDA3 |
| Aircraft | B739/M-SDE2E3FGHIRWXY/LB1 |
Departure
| Time | 2026-05-07 22:33 |
|---|---|
| Airport | Hartsfield Jackson Atlanta International Airport (KATL) |
Arrival
| Time | 2026-05-07 23:55 |
|---|---|
| Airport | Fort Lauderdale Hollywood International Airport (KFLL) |
| Time | Latitude | Longitude | Altitude | Speed | Heading |
|---|---|---|---|---|---|
| 2026-05-07 21:36 | 33.63801 | -84.43865 | 1005 ft | 0 kts | 269° |
| 2026-05-07 22:22 | 33.63801 | -84.43840 | 1005 ft | 4 kts | 269° |
| 2026-05-07 22:22 | 33.63801 | -84.43811 | 1005 ft | 4 kts | 257° |
| 2026-05-07 22:22 | 33.63813 | -84.43791 | 1005 ft | 4 kts | 197° |
| 2026-05-07 22:22 | 33.63834 | -84.43787 | 1005 ft | 0 kts | 180° |
| 2026-05-07 22:26 | 33.63824 | -84.43787 | 1005 ft | 4 kts | 180° |
| 2026-05-07 22:26 | 33.63772 | -84.43787 | 1005 ft | 9 kts | 179° |
| 2026-05-07 22:26 | 33.63705 | -84.43785 | 1005 ft | 10 kts | 171° |
| 2026-05-07 22:26 | 33.63666 | -84.43726 | 1005 ft | 10 kts | 96° |
| 2026-05-07 22:27 | 33.63663 | -84.43624 | 1005 ft | 15 kts | 91° |
| 2026-05-07 22:27 | 33.63664 | -84.43477 | 1005 ft | 20 kts | 89° |
| 2026-05-07 22:27 | 33.63664 | -84.43286 | 1005 ft | 25 kts | 91° |
| 2026-05-07 22:27 | 33.63664 | -84.43065 | 1005 ft | 27 kts | 89° |
| 2026-05-07 22:28 | 33.63665 | -84.42847 | 1005 ft | 25 kts | 89° |
| 2026-05-07 22:28 | 33.63655 | -84.42647 | 1006 ft | 24 kts | 90° |
| 2026-05-07 22:28 | 33.63655 | -84.42455 | 1006 ft | 23 kts | 90° |
| 2026-05-07 22:28 | 33.63656 | -84.42269 | 1006 ft | 22 kts | 90° |
| 2026-05-07 22:29 | 33.63655 | -84.42088 | 1006 ft | 21 kts | 91° |
| 2026-05-07 22:29 | 33.63655 | -84.41913 | 1005 ft | 21 kts | 88° |
| 2026-05-07 22:29 | 33.63655 | -84.41743 | 1005 ft | 20 kts | 90° |
| 2026-05-07 22:29 | 33.63655 | -84.41577 | 1005 ft | 19 kts | 90° |
| 2026-05-07 22:30 | 33.63655 | -84.41417 | 1005 ft | 19 kts | 90° |
| 2026-05-07 22:30 | 33.63655 | -84.41263 | 1005 ft | 18 kts | 90° |
| 2026-05-07 22:30 | 33.63655 | -84.41113 | 1005 ft | 18 kts | 90° |
| 2026-05-07 22:30 | 33.63657 | -84.40973 | 1005 ft | 12 kts | 89° |
| 2026-05-07 22:31 | 33.63630 | -84.40910 | 1005 ft | 8 kts | 161° |
| 2026-05-07 22:31 | 33.63588 | -84.40907 | 1005 ft | 4 kts | 180° |
| 2026-05-07 22:31 | 33.63572 | -84.40908 | 1005 ft | 2 kts | 182° |
| 2026-05-07 22:31 | 33.63559 | -84.40908 | 1006 ft | 2 kts | 182° |
| 2026-05-07 22:32 | 33.63540 | -84.40909 | 1006 ft | 6 kts | 181° |
| 2026-05-07 22:32 | 33.63483 | -84.40920 | 1006 ft | 10 kts | 217° |
| 2026-05-07 22:32 | 33.63471 | -84.41007 | 1006 ft | 15 kts | 270° |
| 2026-05-07 22:32 | 33.63471 | -84.41428 | 1005 ft | 86 kts | 270° |
| 2026-05-07 22:33 | 33.63472 | -84.42401 | 1007 ft | 144 kts | 270° |
| 2026-05-07 22:33 | 33.63468 | -84.43751 | 1268 ft | 169 kts | 272° |
| 2026-05-07 22:33 | 33.63454 | -84.45201 | 1909 ft | 172 kts | 270° |
| 2026-05-07 22:33 | 33.63450 | -84.46591 | 2760 ft | 167 kts | 270° |
| 2026-05-07 22:34 | 33.63451 | -84.48030 | 3238 ft | 184 kts | 269° |
| 2026-05-07 22:34 | 33.63452 | -84.49664 | 3481 ft | 209 kts | 269° |
| 2026-05-07 22:34 | 33.63452 | -84.51494 | 3826 ft | 225 kts | 269° |
| 2026-05-07 22:34 | 33.63155 | -84.53401 | 4077 ft | 245 kts | 239° |
| 2026-05-07 22:35 | 33.61932 | -84.54845 | 4793 ft | 255 kts | 212° |
| 2026-05-07 22:35 | 33.60235 | -84.55439 | 5659 ft | 264 kts | 187° |
| 2026-05-07 22:35 | 33.58395 | -84.55032 | 6467 ft | 281 kts | 161° |
| 2026-05-07 22:35 | 33.56723 | -84.53718 | 7191 ft | 294 kts | 144° |
| 2026-05-07 22:36 | 33.55213 | -84.52023 | 7944 ft | 301 kts | 140° |
| 2026-05-07 22:36 | 33.53731 | -84.50213 | 8662 ft | 307 kts | 140° |
| 2026-05-07 22:36 | 33.52234 | -84.48370 | 9584 ft | 310 kts | 140° |
| 2026-05-07 22:36 | 33.50683 | -84.46482 | 10383 ft | 319 kts | 141° |
| 2026-05-07 22:37 | 33.49620 | -84.45208 | 10583 ft | 335 kts | 141° |
| 2026-05-07 22:37 | 33.47317 | -84.42489 | 10870 ft | 366 kts | 141° |
| 2026-05-07 22:37 | 33.45469 | -84.40319 | 11320 ft | 377 kts | 141° |
| 2026-05-07 22:37 | 33.43578 | -84.38104 | 11931 ft | 383 kts | 141° |
| 2026-05-07 22:38 | 33.41661 | -84.35863 | 12590 ft | 387 kts | 142° |
| 2026-05-07 22:38 | 33.39724 | -84.33607 | 13245 ft | 391 kts | 142° |
| 2026-05-07 22:38 | 33.38421 | -84.32093 | 13638 ft | 395 kts | 142° |
| 2026-05-07 22:38 | 33.36436 | -84.29790 | 14199 ft | 400 kts | 142° |
| 2026-05-07 22:39 | 33.34431 | -84.27468 | 14779 ft | 403 kts | 142° |
| 2026-05-07 22:39 | 33.32411 | -84.25130 | 15346 ft | 406 kts | 143° |
| 2026-05-07 22:39 | 33.30366 | -84.22764 | 15908 ft | 410 kts | 143° |
| 2026-05-07 22:39 | 33.28306 | -84.20384 | 16462 ft | 414 kts | 143° |
| 2026-05-07 22:40 | 33.26228 | -84.17984 | 17027 ft | 417 kts | 143° |
| 2026-05-07 22:40 | 33.24135 | -84.15570 | 17566 ft | 421 kts | 143° |
| 2026-05-07 22:40 | 33.22019 | -84.13130 | 18115 ft | 424 kts | 143° |
| 2026-05-07 22:40 | 33.19854 | -84.10635 | 18578 ft | 428 kts | 143° |
| 2026-05-07 22:41 | 33.17735 | -84.08179 | 19027 ft | 432 kts | 143° |
| 2026-05-07 22:41 | 33.15578 | -84.05668 | 19488 ft | 435 kts | 143° |
| 2026-05-07 22:41 | 33.13393 | -84.03148 | 19945 ft | 438 kts | 143° |
| 2026-05-07 22:41 | 33.11177 | -84.00617 | 20387 ft | 442 kts | 143° |
| 2026-05-07 22:42 | 33.08942 | -83.98084 | 20816 ft | 445 kts | 144° |
| 2026-05-07 22:42 | 33.06544 | -83.95772 | 21222 ft | 442 kts | 152° |
| 2026-05-07 22:42 | 33.04026 | -83.93657 | 21664 ft | 445 kts | 153° |
| 2026-05-07 22:42 | 33.01460 | -83.91556 | 22094 ft | 448 kts | 153° |
| 2026-05-07 22:43 | 32.98879 | -83.89449 | 22502 ft | 452 kts | 153° |
| 2026-05-07 22:43 | 32.96275 | -83.87310 | 22897 ft | 456 kts | 153° |
| 2026-05-07 22:43 | 32.93662 | -83.85147 | 23301 ft | 460 kts | 153° |
| 2026-05-07 22:43 | 32.91026 | -83.82955 | 23672 ft | 463 kts | 153° |
| 2026-05-07 22:44 | 32.88382 | -83.80749 | 24041 ft | 465 kts | 152° |
| 2026-05-07 22:44 | 32.85734 | -83.78539 | 24419 ft | 467 kts | 152° |
| 2026-05-07 22:44 | 32.83065 | -83.76312 | 24788 ft | 469 kts | 152° |
| 2026-05-07 22:44 | 32.80426 | -83.74114 | 25141 ft | 471 kts | 152° |
| 2026-05-07 22:45 | 32.77734 | -83.71874 | 25498 ft | 473 kts | 152° |
| 2026-05-07 22:45 | 32.75028 | -83.69625 | 25821 ft | 476 kts | 152° |
| 2026-05-07 22:45 | 32.72312 | -83.67369 | 26168 ft | 478 kts | 152° |
| 2026-05-07 22:45 | 32.69577 | -83.65100 | 26506 ft | 480 kts | 152° |
| 2026-05-07 22:46 | 32.66846 | -83.62792 | 26844 ft | 483 kts | 151° |
| 2026-05-07 22:46 | 32.64134 | -83.60416 | 27151 ft | 486 kts | 150° |
| 2026-05-07 22:46 | 32.61424 | -83.58003 | 27456 ft | 489 kts | 150° |
| 2026-05-07 22:46 | 32.58702 | -83.55569 | 27747 ft | 491 kts | 150° |
| 2026-05-07 22:47 | 32.55964 | -83.53128 | 28017 ft | 494 kts | 150° |
| 2026-05-07 22:47 | 32.53207 | -83.50678 | 28306 ft | 497 kts | 150° |
| 2026-05-07 22:47 | 32.50430 | -83.48222 | 28636 ft | 501 kts | 150° |
| 2026-05-07 22:47 | 32.47621 | -83.45746 | 28936 ft | 503 kts | 150° |
| 2026-05-07 22:48 | 32.44813 | -83.43274 | 29254 ft | 505 kts | 150° |
| 2026-05-07 22:48 | 32.41976 | -83.40780 | 29528 ft | 507 kts | 150° |
| 2026-05-07 22:48 | 32.39143 | -83.38291 | 29783 ft | 510 kts | 150° |
| 2026-05-07 22:48 | 32.36319 | -83.35814 | 30014 ft | 512 kts | 150° |
| 2026-05-07 22:49 | 32.33423 | -83.33273 | 30253 ft | 514 kts | 150° |
| 2026-05-07 22:49 | 32.30576 | -83.30778 | 30486 ft | 516 kts | 150° |
| 2026-05-07 22:49 | 32.27689 | -83.28248 | 30723 ft | 517 kts | 150° |
| 2026-05-07 22:49 | 32.24801 | -83.25719 | 31034 ft | 516 kts | 150° |
| 2026-05-07 22:50 | 32.21924 | -83.23201 | 31407 ft | 514 kts | 150° |
| 2026-05-07 22:50 | 32.19056 | -83.20692 | 31766 ft | 513 kts | 150° |
| 2026-05-07 22:50 | 32.16188 | -83.18189 | 32087 ft | 512 kts | 150° |
| 2026-05-07 22:50 | 32.13327 | -83.15693 | 32394 ft | 512 kts | 150° |
| 2026-05-07 22:51 | 32.10450 | -83.13186 | 32728 ft | 512 kts | 151° |
| 2026-05-07 22:51 | 32.07587 | -83.10693 | 33053 ft | 511 kts | 151° |
| 2026-05-07 22:51 | 32.04731 | -83.08208 | 33334 ft | 512 kts | 151° |
| 2026-05-07 22:51 | 32.01864 | -83.05715 | 33612 ft | 512 kts | 151° |
| 2026-05-07 22:52 | 31.99000 | -83.03228 | 33900 ft | 512 kts | 151° |
| 2026-05-07 22:52 | 31.96131 | -83.00736 | 34175 ft | 511 kts | 151° |
| 2026-05-07 22:52 | 31.93273 | -82.98256 | 34423 ft | 510 kts | 151° |
| 2026-05-07 22:52 | 31.90414 | -82.95777 | 34684 ft | 510 kts | 151° |
| 2026-05-07 22:53 | 31.87561 | -82.93306 | 34942 ft | 509 kts | 151° |
| 2026-05-07 22:53 | 31.84707 | -82.90836 | 35198 ft | 508 kts | 151° |
| 2026-05-07 22:53 | 31.81864 | -82.88376 | 35442 ft | 507 kts | 151° |
| 2026-05-07 22:53 | 31.79023 | -82.85921 | 35692 ft | 506 kts | 151° |
| 2026-05-07 22:54 | 31.76216 | -82.83414 | 35942 ft | 507 kts | 149° |
| 2026-05-07 22:54 | 31.73458 | -82.80817 | 36187 ft | 507 kts | 148° |
| 2026-05-07 22:54 | 31.70770 | -82.78225 | 36417 ft | 507 kts | 148° |
| 2026-05-07 22:54 | 31.68053 | -82.75590 | 36656 ft | 506 kts | 148° |
| 2026-05-07 22:55 | 31.65337 | -82.72966 | 36887 ft | 505 kts | 148° |
| 2026-05-07 22:55 | 31.62620 | -82.70359 | 37107 ft | 504 kts | 148° |
| 2026-05-07 22:55 | 31.59901 | -82.67768 | 37309 ft | 503 kts | 148° |
| 2026-05-07 22:55 | 31.57183 | -82.65190 | 37521 ft | 502 kts | 148° |
| 2026-05-07 22:56 | 31.54464 | -82.62619 | 37749 ft | 501 kts | 148° |
| 2026-05-07 22:56 | 31.51753 | -82.60059 | 37951 ft | 500 kts | 148° |
| 2026-05-07 22:56 | 31.49042 | -82.57502 | 38155 ft | 499 kts | 149° |
| 2026-05-07 22:56 | 31.46346 | -82.54960 | 38370 ft | 498 kts | 149° |
| 2026-05-07 22:57 | 31.43650 | -82.52419 | 38543 ft | 497 kts | 149° |
| 2026-05-07 22:57 | 31.40951 | -82.49878 | 38663 ft | 497 kts | 149° |
| 2026-05-07 22:57 | 31.38256 | -82.47342 | 38778 ft | 497 kts | 148° |
| 2026-05-07 22:57 | 31.35557 | -82.44803 | 38902 ft | 497 kts | 148° |
| 2026-05-07 22:58 | 31.32859 | -82.42267 | 38958 ft | 498 kts | 148° |
| 2026-05-07 22:58 | 31.27449 | -82.37188 | 38970 ft | 499 kts | 148° |
| 2026-05-07 22:59 | 31.22070 | -82.32144 | 38973 ft | 499 kts | 148° |
| 2026-05-07 22:59 | 31.16657 | -82.27076 | 38967 ft | 499 kts | 148° |
| 2026-05-07 23:00 | 31.11237 | -82.22009 | 38958 ft | 499 kts | 148° |
| 2026-05-07 23:00 | 31.05821 | -82.16955 | 38947 ft | 498 kts | 148° |
| 2026-05-07 23:01 | 31.00405 | -82.11907 | 38939 ft | 498 kts | 148° |
| 2026-05-07 23:01 | 30.94980 | -82.06859 | 38928 ft | 498 kts | 148° |
| 2026-05-07 23:02 | 30.89560 | -82.01822 | 38932 ft | 498 kts | 148° |
| 2026-05-07 23:02 | 30.84138 | -81.96792 | 38931 ft | 499 kts | 148° |
| 2026-05-07 23:03 | 30.78888 | -81.91928 | 38936 ft | 499 kts | 148° |
| 2026-05-07 23:03 | 30.73477 | -81.86922 | 38935 ft | 500 kts | 148° |
| 2026-05-07 23:04 | 30.68030 | -81.81888 | 38945 ft | 500 kts | 148° |
| 2026-05-07 23:04 | 30.62571 | -81.76855 | 38945 ft | 501 kts | 149° |
| 2026-05-07 23:05 | 30.56945 | -81.72116 | 38944 ft | 499 kts | 153° |
| 2026-05-07 23:05 | 30.51210 | -81.67588 | 38945 ft | 499 kts | 153° |
| 2026-05-07 23:06 | 30.45466 | -81.63030 | 38946 ft | 501 kts | 153° |
| 2026-05-07 23:06 | 30.39724 | -81.58421 | 38946 ft | 502 kts | 152° |
| 2026-05-07 23:07 | 30.33973 | -81.53796 | 38946 ft | 503 kts | 152° |
| 2026-05-07 23:07 | 30.28257 | -81.49209 | 38940 ft | 503 kts | 152° |
| 2026-05-07 23:08 | 30.22493 | -81.44591 | 38944 ft | 504 kts | 152° |
| 2026-05-07 23:08 | 30.16733 | -81.39984 | 38946 ft | 503 kts | 152° |
| 2026-05-07 23:09 | 30.10971 | -81.35384 | 38954 ft | 503 kts | 152° |
| 2026-05-07 23:09 | 30.05215 | -81.30799 | 38952 ft | 502 kts | 152° |
| 2026-05-07 23:10 | 29.99461 | -81.26220 | 38951 ft | 502 kts | 152° |
| 2026-05-07 23:10 | 29.93717 | -81.21655 | 38951 ft | 501 kts | 152° |
| 2026-05-07 23:11 | 29.87976 | -81.17096 | 38953 ft | 501 kts | 152° |
| 2026-05-07 23:11 | 29.82273 | -81.12583 | 38953 ft | 499 kts | 153° |
| 2026-05-07 23:12 | 29.76155 | -81.09096 | 38961 ft | 487 kts | 165° |
| 2026-05-07 23:12 | 29.69875 | -81.06202 | 38965 ft | 486 kts | 166° |
| 2026-05-07 23:13 | 29.63592 | -81.03266 | 38963 ft | 488 kts | 165° |
| 2026-05-07 23:13 | 29.57313 | -81.00231 | 38966 ft | 490 kts | 164° |
| 2026-05-07 23:14 | 29.51034 | -80.97159 | 38965 ft | 491 kts | 164° |
| 2026-05-07 23:14 | 29.44784 | -80.94104 | 38961 ft | 491 kts | 164° |
| 2026-05-07 23:15 | 29.38484 | -80.91035 | 38961 ft | 492 kts | 164° |
| 2026-05-07 23:15 | 29.32175 | -80.87967 | 38960 ft | 492 kts | 164° |
| 2026-05-07 23:16 | 29.25866 | -80.84904 | 38963 ft | 492 kts | 164° |
| 2026-05-07 23:16 | 29.19563 | -80.81848 | 38951 ft | 492 kts | 164° |
| 2026-05-07 23:17 | 29.13259 | -80.78795 | 38957 ft | 491 kts | 163° |
| 2026-05-07 23:17 | 29.06976 | -80.75756 | 38962 ft | 490 kts | 163° |
| 2026-05-07 23:18 | 29.00749 | -80.72748 | 38959 ft | 489 kts | 163° |
| 2026-05-07 23:18 | 28.94478 | -80.69754 | 38961 ft | 487 kts | 165° |
| 2026-05-07 23:19 | 28.88192 | -80.66940 | 38956 ft | 485 kts | 165° |
| 2026-05-07 23:19 | 28.81831 | -80.64138 | 38654 ft | 490 kts | 165° |
| 2026-05-07 23:19 | 28.78693 | -80.62749 | 38396 ft | 489 kts | 165° |
| 2026-05-07 23:20 | 28.75530 | -80.61341 | 38125 ft | 487 kts | 165° |
| 2026-05-07 23:20 | 28.72376 | -80.59934 | 37866 ft | 487 kts | 165° |
| 2026-05-07 23:20 | 28.69220 | -80.58526 | 37602 ft | 487 kts | 165° |
| 2026-05-07 23:20 | 28.66066 | -80.57119 | 37336 ft | 487 kts | 164° |
| 2026-05-07 23:21 | 28.62904 | -80.55711 | 36975 ft | 489 kts | 164° |
| 2026-05-07 23:21 | 28.59723 | -80.54296 | 36634 ft | 491 kts | 164° |
| 2026-05-07 23:21 | 28.56533 | -80.52878 | 36282 ft | 493 kts | 164° |
| 2026-05-07 23:21 | 28.53318 | -80.51449 | 35938 ft | 494 kts | 164° |
| 2026-05-07 23:22 | 28.50121 | -80.50028 | 35608 ft | 495 kts | 164° |
| 2026-05-07 23:22 | 28.46946 | -80.48618 | 35281 ft | 495 kts | 164° |
| 2026-05-07 23:22 | 28.43735 | -80.47193 | 34962 ft | 495 kts | 164° |
| 2026-05-07 23:22 | 28.40522 | -80.45768 | 34628 ft | 495 kts | 164° |
| 2026-05-07 23:23 | 28.37311 | -80.44345 | 34310 ft | 495 kts | 164° |
| 2026-05-07 23:23 | 28.34101 | -80.42923 | 34016 ft | 495 kts | 163° |
| 2026-05-07 23:23 | 28.30891 | -80.41502 | 33664 ft | 495 kts | 163° |
| 2026-05-07 23:23 | 28.27680 | -80.40083 | 33316 ft | 495 kts | 163° |
| 2026-05-07 23:24 | 28.24474 | -80.38665 | 32956 ft | 494 kts | 163° |
| 2026-05-07 23:24 | 28.21267 | -80.37249 | 32611 ft | 494 kts | 163° |
| 2026-05-07 23:24 | 28.18065 | -80.35835 | 32276 ft | 494 kts | 163° |
| 2026-05-07 23:24 | 28.14866 | -80.34424 | 31927 ft | 494 kts | 163° |
| 2026-05-07 23:25 | 28.11666 | -80.33014 | 31599 ft | 493 kts | 163° |
| 2026-05-07 23:25 | 28.08465 | -80.31609 | 31274 ft | 493 kts | 164° |
| 2026-05-07 23:25 | 28.05242 | -80.30288 | 30943 ft | 492 kts | 166° |
| 2026-05-07 23:25 | 28.02005 | -80.29033 | 30622 ft | 492 kts | 166° |
| 2026-05-07 23:26 | 27.98799 | -80.27814 | 30307 ft | 492 kts | 166° |
| 2026-05-07 23:26 | 27.95547 | -80.26577 | 29981 ft | 493 kts | 166° |
| 2026-05-07 23:26 | 27.92299 | -80.25330 | 29605 ft | 494 kts | 166° |
| 2026-05-07 23:26 | 27.89045 | -80.24070 | 29239 ft | 495 kts | 165° |
| 2026-05-07 23:27 | 27.82520 | -80.21527 | 28513 ft | 497 kts | 165° |
| 2026-05-07 23:27 | 27.79250 | -80.20251 | 28159 ft | 498 kts | 165° |
| 2026-05-07 23:27 | 27.77080 | -80.19405 | 28027 ft | 500 kts | 165° |
| 2026-05-07 23:28 | 27.70460 | -80.16828 | 28023 ft | 501 kts | 166° |
| 2026-05-07 23:28 | 27.67177 | -80.15549 | 27832 ft | 496 kts | 166° |
| 2026-05-07 23:28 | 27.63945 | -80.14291 | 27455 ft | 485 kts | 166° |
| 2026-05-07 23:29 | 27.60798 | -80.13060 | 27100 ft | 473 kts | 165° |
| 2026-05-07 23:29 | 27.57740 | -80.11814 | 26755 ft | 462 kts | 165° |
| 2026-05-07 23:29 | 27.54758 | -80.10572 | 26415 ft | 452 kts | 165° |
| 2026-05-07 23:29 | 27.51831 | -80.09350 | 26080 ft | 443 kts | 165° |
| 2026-05-07 23:30 | 27.48964 | -80.08160 | 25751 ft | 436 kts | 165° |
| 2026-05-07 23:30 | 27.46130 | -80.06991 | 25417 ft | 432 kts | 165° |
| 2026-05-07 23:30 | 27.43314 | -80.05834 | 25110 ft | 431 kts | 165° |
| 2026-05-07 23:30 | 27.40483 | -80.04674 | 24790 ft | 434 kts | 165° |
| 2026-05-07 23:31 | 27.37637 | -80.03532 | 24480 ft | 434 kts | 167° |
| 2026-05-07 23:31 | 27.34755 | -80.02592 | 24169 ft | 428 kts | 171° |
| 2026-05-07 23:31 | 27.31878 | -80.01767 | 24040 ft | 426 kts | 171° |
| 2026-05-07 23:31 | 27.29051 | -80.00950 | 24005 ft | 422 kts | 171° |
| 2026-05-07 23:32 | 27.26249 | -80.00108 | 23999 ft | 415 kts | 170° |
| 2026-05-07 23:32 | 27.23459 | -79.99209 | 23585 ft | 420 kts | 168° |
| 2026-05-07 23:32 | 27.20681 | -79.98203 | 23068 ft | 419 kts | 167° |
| 2026-05-07 23:32 | 27.17927 | -79.97171 | 22535 ft | 416 kts | 166° |
| 2026-05-07 23:33 | 27.15187 | -79.96149 | 22021 ft | 412 kts | 166° |
| 2026-05-07 23:33 | 27.12472 | -79.95154 | 21530 ft | 409 kts | 166° |
| 2026-05-07 23:33 | 27.09810 | -79.94192 | 21064 ft | 405 kts | 166° |
| 2026-05-07 23:33 | 27.07105 | -79.93218 | 20571 ft | 402 kts | 166° |
| 2026-05-07 23:34 | 27.04458 | -79.92217 | 20098 ft | 400 kts | 164° |
| 2026-05-07 23:34 | 27.01845 | -79.91161 | 19634 ft | 398 kts | 163° |
| 2026-05-07 23:34 | 26.99254 | -79.90094 | 19150 ft | 396 kts | 163° |
| 2026-05-07 23:34 | 26.96679 | -79.89036 | 18677 ft | 394 kts | 163° |
| 2026-05-07 23:35 | 26.94112 | -79.87989 | 18191 ft | 392 kts | 163° |
| 2026-05-07 23:35 | 26.91555 | -79.86953 | 17667 ft | 389 kts | 163° |
| 2026-05-07 23:35 | 26.89015 | -79.85928 | 17186 ft | 385 kts | 162° |
| 2026-05-07 23:35 | 26.86503 | -79.84916 | 16726 ft | 382 kts | 162° |
| 2026-05-07 23:36 | 26.84044 | -79.83926 | 16265 ft | 378 kts | 162° |
| 2026-05-07 23:36 | 26.81583 | -79.82936 | 15825 ft | 374 kts | 162° |
| 2026-05-07 23:36 | 26.79144 | -79.81956 | 15388 ft | 371 kts | 162° |
| 2026-05-07 23:36 | 26.76727 | -79.80984 | 14950 ft | 368 kts | 162° |
| 2026-05-07 23:37 | 26.74326 | -79.80019 | 14504 ft | 365 kts | 162° |
| 2026-05-07 23:37 | 26.71944 | -79.79079 | 14070 ft | 361 kts | 166° |
| 2026-05-07 23:37 | 26.69476 | -79.78767 | 13607 ft | 354 kts | 186° |
| 2026-05-07 23:37 | 26.67100 | -79.79364 | 13177 ft | 347 kts | 201° |
| 2026-05-07 23:38 | 26.64852 | -79.80293 | 12754 ft | 343 kts | 202° |
| 2026-05-07 23:38 | 26.62639 | -79.81247 | 12334 ft | 339 kts | 202° |
| 2026-05-07 23:38 | 26.60439 | -79.82179 | 11927 ft | 336 kts | 202° |
| 2026-05-07 23:38 | 26.58261 | -79.83079 | 11530 ft | 333 kts | 201° |
| 2026-05-07 23:39 | 26.56120 | -79.83954 | 11142 ft | 330 kts | 201° |
| 2026-05-07 23:39 | 26.53960 | -79.84872 | 10763 ft | 326 kts | 203° |
| 2026-05-07 23:39 | 26.51911 | -79.85833 | 10406 ft | 319 kts | 204° |
| 2026-05-07 23:39 | 26.49904 | -79.86796 | 10050 ft | 309 kts | 204° |
| 2026-05-07 23:40 | 26.47982 | -79.87716 | 9938 ft | 289 kts | 204° |
| 2026-05-07 23:40 | 26.46141 | -79.88592 | 9426 ft | 289 kts | 204° |
| 2026-05-07 23:40 | 26.44293 | -79.89465 | 9052 ft | 289 kts | 204° |
| 2026-05-07 23:40 | 26.42446 | -79.90334 | 8732 ft | 287 kts | 204° |
| 2026-05-07 23:41 | 26.40616 | -79.91193 | 8409 ft | 285 kts | 204° |
| 2026-05-07 23:41 | 26.38797 | -79.92047 | 8087 ft | 283 kts | 204° |
| 2026-05-07 23:41 | 26.37058 | -79.92985 | 7978 ft | 272 kts | 211° |
| 2026-05-07 23:41 | 26.35446 | -79.94035 | 7875 ft | 266 kts | 212° |
| 2026-05-07 23:42 | 26.33858 | -79.95096 | 7785 ft | 266 kts | 212° |
| 2026-05-07 23:42 | 26.32248 | -79.96157 | 7712 ft | 271 kts | 212° |
| 2026-05-07 23:42 | 26.30609 | -79.97220 | 7632 ft | 274 kts | 211° |
| 2026-05-07 23:42 | 26.28955 | -79.98286 | 7536 ft | 275 kts | 211° |
| 2026-05-07 23:43 | 26.27305 | -79.99345 | 7451 ft | 273 kts | 211° |
| 2026-05-07 23:43 | 26.25658 | -80.00404 | 7367 ft | 273 kts | 211° |
| 2026-05-07 23:43 | 26.24017 | -80.01458 | 7278 ft | 272 kts | 211° |
| 2026-05-07 23:43 | 26.22384 | -80.02508 | 7198 ft | 271 kts | 211° |
| 2026-05-07 23:44 | 26.20754 | -80.03554 | 7112 ft | 271 kts | 211° |
| 2026-05-07 23:44 | 26.19128 | -80.04610 | 7034 ft | 269 kts | 216° |
| 2026-05-07 23:44 | 26.17863 | -80.06097 | 6941 ft | 265 kts | 242° |
| 2026-05-07 23:44 | 26.17179 | -80.07956 | 6877 ft | 262 kts | 253° |
| 2026-05-07 23:45 | 26.16618 | -80.09888 | 6790 ft | 262 kts | 253° |
| 2026-05-07 23:45 | 26.16053 | -80.11819 | 6704 ft | 263 kts | 253° |
| 2026-05-07 23:45 | 26.15478 | -80.13755 | 6623 ft | 263 kts | 252° |
| 2026-05-07 23:45 | 26.14991 | -80.15713 | 6511 ft | 263 kts | 265° |
| 2026-05-07 23:46 | 26.14963 | -80.17741 | 6464 ft | 261 kts | 271° |
| 2026-05-07 23:46 | 26.14993 | -80.19759 | 6377 ft | 261 kts | 271° |
| 2026-05-07 23:46 | 26.15021 | -80.21786 | 6293 ft | 262 kts | 271° |
| 2026-05-07 23:46 | 26.15043 | -80.23808 | 6205 ft | 262 kts | 271° |
| 2026-05-07 23:47 | 26.15059 | -80.25828 | 6121 ft | 261 kts | 271° |
| 2026-05-07 23:47 | 26.15071 | -80.27851 | 6038 ft | 259 kts | 271° |
| 2026-05-07 23:47 | 26.15080 | -80.29841 | 5962 ft | 257 kts | 271° |
| 2026-05-07 23:47 | 26.15088 | -80.31826 | 5872 ft | 256 kts | 271° |
| 2026-05-07 23:48 | 26.15096 | -80.33795 | 5795 ft | 254 kts | 271° |
| 2026-05-07 23:48 | 26.15098 | -80.35754 | 5718 ft | 252 kts | 270° |
| 2026-05-07 23:48 | 26.15091 | -80.37713 | 5561 ft | 255 kts | 270° |
| 2026-05-07 23:48 | 26.15079 | -80.39697 | 5343 ft | 259 kts | 270° |
| 2026-05-07 23:49 | 26.15070 | -80.41679 | 5075 ft | 258 kts | 268° |
| 2026-05-07 23:49 | 26.14598 | -80.43598 | 4718 ft | 255 kts | 240° |
| 2026-05-07 23:49 | 26.13360 | -80.44967 | 4386 ft | 252 kts | 210° |
| 2026-05-07 23:49 | 26.11711 | -80.45454 | 4100 ft | 251 kts | 181° |
| 2026-05-07 23:50 | 26.09977 | -80.45245 | 3814 ft | 252 kts | 166° |
| 2026-05-07 23:50 | 26.08487 | -80.44242 | 3497 ft | 256 kts | 129° |
| 2026-05-07 23:50 | 26.07820 | -80.42464 | 3304 ft | 251 kts | 96° |
| 2026-05-07 23:50 | 26.07779 | -80.40540 | 3127 ft | 244 kts | 88° |
| 2026-05-07 23:51 | 26.07819 | -80.38700 | 3020 ft | 231 kts | 89° |
| 2026-05-07 23:51 | 26.07827 | -80.36962 | 3001 ft | 221 kts | 90° |
| 2026-05-07 23:51 | 26.07818 | -80.35285 | 2981 ft | 210 kts | 90° |
| 2026-05-07 23:51 | 26.07807 | -80.33707 | 2893 ft | 200 kts | 91° |
| 2026-05-07 23:52 | 26.07796 | -80.32186 | 2656 ft | 194 kts | 91° |
| 2026-05-07 23:52 | 26.07785 | -80.30711 | 2407 ft | 188 kts | 92° |
| 2026-05-07 23:52 | 26.07776 | -80.29277 | 2184 ft | 183 kts | 92° |
| 2026-05-07 23:52 | 26.07767 | -80.27904 | 1942 ft | 172 kts | 93° |
| 2026-05-07 23:53 | 26.07758 | -80.26617 | 1784 ft | 160 kts | 95° |
| 2026-05-07 23:53 | 26.07749 | -80.25370 | 1525 ft | 156 kts | 94° |
| 2026-05-07 23:53 | 26.07741 | -80.24208 | 1350 ft | 147 kts | 93° |
| 2026-05-07 23:53 | 26.07734 | -80.23099 | 1157 ft | 144 kts | 94° |
| 2026-05-07 23:54 | 26.07727 | -80.21954 | 959 ft | 150 kts | 92° |
| 2026-05-07 23:54 | 26.07722 | -80.20809 | 787 ft | 147 kts | 94° |
| 2026-05-07 23:54 | 26.07718 | -80.19669 | 594 ft | 147 kts | 92° |
| 2026-05-07 23:54 | 26.07708 | -80.18550 | 449 ft | 143 kts | 95° |
| 2026-05-07 23:55 | 26.07707 | -80.17360 | 298 ft | 161 kts | 95° |
| 2026-05-07 23:55 | 26.07693 | -80.16180 | 64 ft | 144 kts | 92° |
| 2026-05-07 23:55 | 26.07685 | -80.15164 | 15 ft | 112 kts | 89° |
| 2026-05-07 23:55 | 26.07684 | -80.14541 | 18 ft | 36 kts | 92° |
| 2026-05-07 23:56 | 26.07624 | -80.14396 | 19 ft | 10 kts | 122° |
| 2026-05-07 23:56 | 26.07589 | -80.14360 | 17 ft | 4 kts | 170° |
| 2026-05-07 23:56 | 26.07564 | -80.14379 | 16 ft | 5 kts | 237° |
| 2026-05-07 23:56 | 26.07559 | -80.14413 | 16 ft | 5 kts | 266° |
| 2026-05-07 23:57 | 26.07559 | -80.14457 | 16 ft | 8 kts | 270° |
| 2026-05-07 23:57 | 26.07529 | -80.14502 | 16 ft | 8 kts | 196° |
| 2026-05-07 23:57 | 26.07481 | -80.14497 | 16 ft | 7 kts | 171° |
| 2026-05-07 23:57 | 26.07438 | -80.14491 | 15 ft | 6 kts | 179° |
| 2026-05-07 23:58 | 26.07400 | -80.14491 | 15 ft | 5 kts | 179° |
| 2026-05-07 23:58 | 26.07360 | -80.14491 | 15 ft | 7 kts | 181° |
| 2026-05-07 23:58 | 26.07339 | -80.14492 | 15 ft | 0 kts | 180° |
| 2026-05-07 23:58 | 26.07349 | -80.14492 | 15 ft | 7 kts | 180° |
| 2026-05-07 23:59 | 26.07360 | -80.14488 | 15 ft | 2 kts | 150° |
| 2026-05-07 23:59 | 26.07348 | -80.14467 | 15 ft | 4 kts | 113° |
| 2026-05-07 23:59 | 26.07341 | -80.14438 | 15 ft | 2 kts | 103° |
| 2026-05-07 23:59 | 26.07339 | -80.14427 | 15 ft | 1 kts | 102° |
| 2026-05-08 00:00 | 26.07338 | -80.14423 | 15 ft | 0 kts | 102° |